Time;durP1;ratioP1;P1;durP2;ratioP2;P2;SDS_P1;SDS_P2;PMS_P1;PMS_P2;Temp;Humidity;BMP_temperature;BMP_pressure;BME280_temperature;BME280_humidity;BME280_pressure;Samples;Min_cycle;Max_cycle;Signal;HPM_P1;HPM_P2
2023/02/24 00:01:58;;;;;;;11;6.7;;;;;;;;;;;;;
2023/02/24 00:04:24;;;;;;;10.1;6.2;;;;;;;;;;;;;
2023/02/24 00:06:49;;;;;;;9.2;6.6;;;;;;;;;;;;;
2023/02/24 00:09:19;;;;;;;10.7;6.6;;;;;;;;;;;;;
2023/02/24 00:11:44;;;;;;;9.4;6.3;;;;;;;;;;;;;
2023/02/24 00:14:19;;;;;;;8.7;5.9;;;;;;;;;;;;;
2023/02/24 00:16:47;;;;;;;10;6.3;;;;;;;;;;;;;
2023/02/24 00:19:15;;;;;;;9;5.8;;;;;;;;;;;;;
2023/02/24 00:21:40;;;;;;;9.5;6.3;;;;;;;;;;;;;
2023/02/24 00:24:12;;;;;;;11.2;6.5;;;;;;;;;;;;;
2023/02/24 00:26:44;;;;;;;9.8;5.8;;;;;;;;;;;;;
2023/02/24 00:29:09;;;;;;;8.4;5.6;;;;;;;;;;;;;
2023/02/24 00:31:42;;;;;;;7.5;5.4;;;;;;;;;;;;;
2023/02/24 00:34:13;;;;;;;7.7;5.3;;;;;;;;;;;;;
2023/02/24 00:36:37;;;;;;;7.5;5.4;;;;;;;;;;;;;
2023/02/24 00:39:08;;;;;;;7.2;4.9;;;;;;;;;;;;;
2023/02/24 00:41:29;;;;;;;6.7;5.1;;;;;;;;;;;;;
2023/02/24 00:43:58;;;;;;;6.4;4.8;;;;;;;;;;;;;
2023/02/24 00:46:24;;;;;;;6.1;4.6;;;;;;;;;;;;;
2023/02/24 00:48:53;;;;;;;7.5;5;;;;;;;;;;;;;
2023/02/24 00:51:22;;;;;;;8.8;4.8;;;;;;;;;;;;;
2023/02/24 00:53:42;;;;;;;7.9;4.8;;;;;;;;;;;;;
2023/02/24 00:56:10;;;;;;;9.1;5.3;;;;;;;;;;;;;
2023/02/24 00:58:33;;;;;;;8.8;5.8;;;;;;;;;;;;;
2023/02/24 01:00:59;;;;;;;7.7;5;;;;;;;;;;;;;
2023/02/24 01:03:26;;;;;;;7.9;5.2;;;;;;;;;;;;;
2023/02/24 01:05:51;;;;;;;8.1;5.5;;;;;;;;;;;;;
2023/02/24 01:08:35;;;;;;;9.2;5.6;;;;;;;;;;;;;
2023/02/24 01:12:00;;;;;;;8.5;4.9;;;;;;;;;;;;;
2023/02/24 01:13:21;;;;;;;8.3;5.7;;;;;;;;;;;;;
2023/02/24 01:15:52;;;;;;;8.5;5.1;;;;;;;;;;;;;
2023/02/24 01:18:19;;;;;;;12;9.7;;;;;;;;;;;;;
2023/02/24 01:20:49;;;;;;;11;5.9;;;;;;;;;;;;;
2023/02/24 01:23:17;;;;;;;9;5.9;;;;;;;;;;;;;
2023/02/24 01:25:43;;;;;;;7.5;5.5;;;;;;;;;;;;;
2023/02/24 01:28:09;;;;;;;8;5.4;;;;;;;;;;;;;
2023/02/24 01:30:37;;;;;;;9.1;5.5;;;;;;;;;;;;;
2023/02/24 01:33:02;;;;;;;8.8;5.3;;;;;;;;;;;;;
2023/02/24 01:35:28;;;;;;;8;5.2;;;;;;;;;;;;;
2023/02/24 01:37:53;;;;;;;7.2;5;;;;;;;;;;;;;
2023/02/24 01:40:20;;;;;;;8.3;5.3;;;;;;;;;;;;;
2023/02/24 01:42:48;;;;;;;7.7;4.8;;;;;;;;;;;;;
2023/02/24 01:45:11;;;;;;;7.2;4.8;;;;;;;;;;;;;
2023/02/24 01:47:37;;;;;;;8.3;5;;;;;;;;;;;;;
2023/02/24 01:50:04;;;;;;;7.1;4.7;;;;;;;;;;;;;
2023/02/24 01:52:29;;;;;;;8.2;4.9;;;;;;;;;;;;;
2023/02/24 01:54:54;;;;;;;8.3;5.2;;;;;;;;;;;;;
2023/02/24 01:57:22;;;;;;;8.9;5;;;;;;;;;;;;;
2023/02/24 01:59:46;;;;;;;9.2;5.2;;;;;;;;;;;;;
2023/02/24 02:02:11;;;;;;;6.6;4.8;;;;;;;;;;;;;
2023/02/24 02:04:39;;;;;;;6.5;4.6;;;;;;;;;;;;;
2023/02/24 02:07:04;;;;;;;8.7;5.2;;;;;;;;;;;;;
2023/02/24 02:09:32;;;;;;;8.8;4.9;;;;;;;;;;;;;
2023/02/24 02:12:00;;;;;;;8;4.7;;;;;;;;;;;;;
2023/02/24 02:14:25;;;;;;;6.8;4.8;;;;;;;;;;;;;
2023/02/24 02:16:50;;;;;;;8.9;4.8;;;;;;;;;;;;;
2023/02/24 02:19:16;;;;;;;6.8;4.6;;;;;;;;;;;;;
2023/02/24 02:21:43;;;;;;;10.8;6.7;;;;;;;;;;;;;
2023/02/24 02:24:06;;;;;;;7.3;4.9;;;;;;;;;;;;;
2023/02/24 02:26:46;;;;;;;9.3;4.9;;;;;;;;;;;;;
2023/02/24 02:29:10;;;;;;;8.4;5.4;;;;;;;;;;;;;
2023/02/24 02:31:35;;;;;;;6;4.3;;;;;;;;;;;;;
2023/02/24 02:34:00;;;;;;;7.2;4.7;;;;;;;;;;;;;
2023/02/24 02:36:25;;;;;;;6.3;4.5;;;;;;;;;;;;;
2023/02/24 02:38:50;;;;;;;6.3;5.2;;;;;;;;;;;;;
2023/02/24 02:41:16;;;;;;;6.7;4.4;;;;;;;;;;;;;
2023/02/24 02:43:40;;;;;;;6.2;4.3;;;;;;;;;;;;;
2023/02/24 02:46:07;;;;;;;5.8;4.3;;;;;;;;;;;;;
2023/02/24 02:48:32;;;;;;;6;4.4;;;;;;;;;;;;;
2023/02/24 02:51:11;;;;;;;7;4.2;;;;;;;;;;;;;
2023/02/24 02:53:37;;;;;;;5.8;4;;;;;;;;;;;;;
2023/02/24 02:56:01;;;;;;;8.2;4.5;;;;;;;;;;;;;
2023/02/24 02:58:27;;;;;;;5.9;4.1;;;;;;;;;;;;;
2023/02/24 03:01:00;;;;;;;7.7;4.6;;;;;;;;;;;;;
2023/02/24 03:03:18;;;;;;;8.8;4.9;;;;;;;;;;;;;
2023/02/24 03:05:45;;;;;;;5.6;4.8;;;;;;;;;;;;;
2023/02/24 03:08:10;;;;;;;7.9;4.4;;;;;;;;;;;;;
2023/02/24 03:10:36;;;;;;;8.6;4.9;;;;;;;;;;;;;
2023/02/24 03:13:00;;;;;;;8.1;4.9;;;;;;;;;;;;;
2023/02/24 03:15:31;;;;;;;6.6;4.5;;;;;;;;;;;;;
2023/02/24 03:18:00;;;;;;;7;4.8;;;;;;;;;;;;;
2023/02/24 03:20:28;;;;;;;8.4;5.1;;;;;;;;;;;;;
2023/02/24 03:22:50;;;;;;;7.4;4.5;;;;;;;;;;;;;
2023/02/24 03:25:15;;;;;;;8.5;4.9;;;;;;;;;;;;;
2023/02/24 03:27:42;;;;;;;7.1;4.8;;;;;;;;;;;;;
2023/02/24 03:30:08;;;;;;;8.1;4.9;;;;;;;;;;;;;
2023/02/24 03:32:42;;;;;;;10.3;7.2;;;;;;;;;;;;;
2023/02/24 03:35:03;;;;;;;9.8;5.9;;;;;;;;;;;;;
2023/02/24 03:37:28;;;;;;;7.2;4.5;;;;;;;;;;;;;
2023/02/24 03:39:54;;;;;;;15.7;12;;;;;;;;;;;;;
2023/02/24 03:42:21;;;;;;;8.2;7.4;;;;;;;;;;;;;
2023/02/24 03:44:46;;;;;;;7.7;6;;;;;;;;;;;;;
2023/02/24 03:47:11;;;;;;;7.2;4.7;;;;;;;;;;;;;
2023/02/24 03:49:42;;;;;;;9.6;6;;;;;;;;;;;;;
2023/02/24 03:52:02;;;;;;;6.9;5.2;;;;;;;;;;;;;
2023/02/24 03:54:30;;;;;;;9.7;5;;;;;;;;;;;;;
2023/02/24 03:56:56;;;;;;;7.7;5.1;;;;;;;;;;;;;
2023/02/24 03:59:17;;;;;;;7.6;5;;;;;;;;;;;;;
2023/02/24 04:02:45;;;;;;;6.7;4.5;;;;;;;2.67;91.51953;931.5072;;;;
2023/02/24 04:16:17;;;;;;;7.9;5;;;;;;;2.59;91.0293;931.4589;;;;
2023/02/24 04:18:43;;;;;;;8.4;5.3;;;;;;;2.57;91.19336;931.4458;;;;
2023/02/24 04:21:08;;;;;;;6.8;5.7;;;;;;;2.6;91.08887;931.3466;;;;
2023/02/24 04:23:38;;;;;;;9.7;5.9;;;;;;;2.63;90.82617;931.3811;;;;
2023/02/24 04:26:03;;;;;;;7.1;5;;;;;;;2.62;91.08203;931.3722;;;;
2023/02/24 04:28:35;;;;;;;6.7;4.6;;;;;;;2.6;92.04004;931.3335;;;;
2023/02/24 04:32:01;;;;;;;8.7;4.6;;;;;;;2.62;92.03516;931.2952;;;;
2023/02/24 04:34:31;;;;;;;10.8;6.1;;;;;;;2.64;92.10352;931.2988;;;;
2023/02/24 04:36:54;;;;;;;12.4;6.7;;;;;;;2.66;91.7627;931.2028;;;;
2023/02/24 04:39:19;;;;;;;15.8;9.7;;;;;;;2.68;91.03711;931.2653;;;;
2023/02/24 04:41:45;;;;;;;14.8;9.3;;;;;;;2.61;91.41602;931.2281;;;;
2023/02/24 04:47:29;;;;;;;80.9;48.6;;;;;;;2.63;92.19141;931.1498;;;;
2023/02/24 04:49:57;;;;;;;10.1;7.6;;;;;;;2.66;92.55859;931.1052;;;;
2023/02/24 04:52:22;;;;;;;9.8;6;;;;;;;2.68;92.55078;931.0578;;;;
2023/02/24 04:54:52;;;;;;;82.4;75.1;;;;;;;2.76;92.36914;931.0011;;;;
2023/02/24 04:57:21;;;;;;;15.4;11.2;;;;;;;2.8;91.74707;930.9894;;;;
2023/02/24 04:59:47;;;;;;;11.3;7.4;;;;;;;2.84;91.39746;930.9816;;;;
2023/02/24 05:02:15;;;;;;;17.3;8.4;;;;;;;2.95;90.58008;930.9512;;;;
2023/02/24 05:04:39;;;;;;;11.1;7.4;;;;;;;3.06;89.40234;930.8953;;;;
2023/02/24 05:07:05;;;;;;;10.4;6.8;;;;;;;3.12;88.74219;930.8912;;;;
2023/02/24 05:09:35;;;;;;;8.9;6.4;;;;;;;3.06;88.42578;930.7876;;;;
2023/02/24 05:18:01;;;;;;;10.6;6.9;;;;;;;2.99;88.23145;930.7634;;;;
2023/02/24 05:27:06;;;;;;;8.9;5.9;;;;;;;2.67;89.74414;930.6479;;;;
2023/02/24 05:29:25;;;;;;;9.4;6;;;;;;;2.66;90.45117;930.6283;;;;
2023/02/24 05:31:58;;;;;;;7.3;5;;;;;;;2.68;90.42285;930.6122;;;;
2023/02/24 05:34:25;;;;;;;7.9;4.7;;;;;;;2.65;90.78516;930.5848;;;;
2023/02/24 05:36:52;;;;;;;8.3;4.4;;;;;;;2.65;90.95313;930.5494;;;;
2023/02/24 05:39:25;;;;;;;8.4;4.5;;;;;;;2.7;91.3125;930.5436;;;;
2023/02/24 05:41:47;;;;;;;5.4;4.1;;;;;;;2.73;91.16113;930.4626;;;;
2023/02/24 05:44:16;;;;;;;8.7;5.1;;;;;;;2.76;91.35742;930.4988;;;;
2023/02/24 05:46:47;;;;;;;6.7;5.1;;;;;;;2.73;91.5332;930.495;;;;
2023/02/24 05:49:13;;;;;;;9.4;5.4;;;;;;;2.76;91.91992;930.4713;;;;
2023/02/24 05:51:53;;;;;;;30.4;18.9;;;;;;;2.84;92.14941;930.4853;;;;
2023/02/24 05:54:07;;;;;;;9.2;5.8;;;;;;;2.91;92.9502;930.4478;;;;
2023/02/24 05:56:33;;;;;;;9;4.9;;;;;;;3.02;92.60352;930.3967;;;;
2023/02/24 05:59:02;;;;;;;17.5;11;;;;;;;3.12;91.70508;930.4801;;;;
2023/02/24 06:01:33;;;;;;;40;19.8;;;;;;;3.1;91.40723;930.5046;;;;
2023/02/24 06:04:04;;;;;;;33.7;17.4;;;;;;;3.15;91.31934;930.4785;;;;
2023/02/24 06:06:24;;;;;;;27.7;13.9;;;;;;;3.24;90.97949;930.4762;;;;
2023/02/24 06:08:54;;;;;;;34.1;14.1;;;;;;;3.33;90.4248;930.3713;;;;
2023/02/24 06:11:17;;;;;;;66.4;26.2;;;;;;;3.41;89.83594;930.4144;;;;
2023/02/24 06:13:47;;;;;;;42.5;18.8;;;;;;;3.46;89.44238;930.4194;;;;
2023/02/24 06:16:13;;;;;;;22.6;13;;;;;;;3.43;89.46875;930.3918;;;;
2023/02/24 06:22:32;;;;;;;14.3;8.1;;;;;;;3.57;88.93555;930.3691;;;;
2023/02/24 06:24:55;;;;;;;12.2;7.6;;;;;;;3.66;88.6084;930.4401;;;;
2023/02/24 06:27:24;;;;;;;13.1;8.4;;;;;;;3.79;88.01855;930.483;;;;
2023/02/24 06:29:56;;;;;;;13;8.6;;;;;;;3.93;87.34766;930.3979;;;;
2023/02/24 06:32:26;;;;;;;12.3;7.8;;;;;;;3.97;86.75098;930.3983;;;;
2023/02/24 06:34:58;;;;;;;14;8.6;;;;;;;3.88;86.7998;930.438;;;;
2023/02/24 06:37:24;;;;;;;14.9;8.8;;;;;;;3.76;87.33594;930.4052;;;;
2023/02/24 06:39:54;;;;;;;14;9;;;;;;;3.62;88.1377;930.4233;;;;
2023/02/24 06:42:23;;;;;;;15.4;8.9;;;;;;;3.55;88.97852;930.3208;;;;
2023/02/24 06:44:49;;;;;;;13.2;8.9;;;;;;;3.63;88.83691;930.377;;;;
2023/02/24 06:47:15;;;;;;;12.8;8.6;;;;;;;3.72;88.47363;930.4113;;;;
2023/02/24 06:49:41;;;;;;;12.6;8.2;;;;;;;3.73;88.0498;930.3951;;;;
2023/02/24 06:52:05;;;;;;;12.6;8.2;;;;;;;3.7;89.16602;930.3337;;;;
2023/02/24 06:59:47;;;;;;;31.7;17.2;;;;;;;3.95;88.46582;930.3;;;;
2023/02/24 07:02:18;;;;;;;53.5;27.5;;;;;;;4;87.7666;930.3019;;;;
2023/02/24 07:04:44;;;;;;;31.1;17.6;;;;;;;4.02;87.80664;930.2545;;;;
2023/02/24 07:07:17;;;;;;;18.4;10.9;;;;;;;4.11;87.9375;930.25;;;;
2023/02/24 07:09:45;;;;;;;16.7;9.7;;;;;;;4.12;87.63574;930.2291;;;;
2023/02/24 07:12:19;;;;;;;17.7;10.3;;;;;;;4.28;87.2168;930.182;;;;
2023/02/24 07:14:42;;;;;;;44.7;26.5;;;;;;;4.44;86.8916;930.2776;;;;
2023/02/24 07:17:09;;;;;;;19.8;13.1;;;;;;;4.54;85.9873;930.1951;;;;
2023/02/24 07:19:38;;;;;;;16;10.5;;;;;;;4.63;85.59961;930.1373;;;;
2023/02/24 07:44:19;;;;;;;7.7;5.5;;;;;;;5.27;84.14941;930.0637;;;;
2023/02/24 07:46:49;;;;;;;10.7;5.7;;;;;;;5.63;81.52246;929.9807;;;;
2023/02/24 07:49:14;;;;;;;10.2;4.8;;;;;;;5.95;81.22168;929.8544;;;;
2023/02/24 07:51:41;;;;;;;7.9;4.6;;;;;;;6.37;78.34863;929.9683;;;;
2023/02/24 07:54:07;;;;;;;8.8;5;;;;;;;6.67;77.99902;929.9255;;;;
2023/02/24 07:56:33;;;;;;;8.3;4.6;;;;;;;7.28;74.62891;929.8536;;;;
2023/02/24 07:58:59;;;;;;;7.8;5;;;;;;;7.64;72.77539;929.8409;;;;
2023/02/24 08:01:29;;;;;;;11.3;5.3;;;;;;;8.17;70.74219;929.7905;;;;
2023/02/24 08:07:29;;;;;;;11.5;6.7;;;;;;;9.27;67.97461;929.6833;;;;
2023/02/24 08:12:17;;;;;;;10;5.3;;;;;;;9.85;63.90527;929.5986;;;;
2023/02/24 08:14:43;;;;;;;8.4;4.7;;;;;;;10.62;61.19922;929.4677;;;;
2023/02/24 08:17:08;;;;;;;7.5;4.4;;;;;;;10.58;60.55469;929.5161;;;;
2023/02/24 08:19:38;;;;;;;11.3;4.9;;;;;;;11.04;57.44043;929.4601;;;;
2023/02/24 08:22:18;;;;;;;12.4;5.9;;;;;;;11.48;57.94434;929.455;;;;
2023/02/24 08:24:34;;;;;;;13.9;5.6;;;;;;;12.02;54.44141;929.4072;;;;
2023/02/24 08:27:04;;;;;;;12.4;6.3;;;;;;;11.99;55.76758;929.3721;;;;
2023/02/24 08:29:38;;;;;;;18.2;6.5;;;;;;;10.93;58.50098;929.3005;;;;
2023/02/24 08:31:58;;;;;;;22.8;7.5;;;;;;;11.1;59.16211;929.2861;;;;
2023/02/24 08:34:30;;;;;;;12.4;5.4;;;;;;;12.14;56.38281;929.2853;;;;
2023/02/24 08:36:54;;;;;;;18;5.4;;;;;;;13.23;53.34277;929.1347;;;;
2023/02/24 08:39:18;;;;;;;13.2;4.7;;;;;;;13.36;51.2207;929.1351;;;;
2023/02/24 08:41:50;;;;;;;11.9;4.9;;;;;;;14;49.66211;929.1264;;;;
2023/02/24 08:44:12;;;;;;;16.8;5.6;;;;;;;15.53;45.9209;929.0561;;;;
2023/02/24 08:46:42;;;;;;;11.6;5.1;;;;;;;17.22;41.28711;928.9878;;;;
2023/02/24 08:49:15;;;;;;;13.4;5;;;;;;;16.05;42.00977;928.9864;;;;
2023/02/24 08:51:35;;;;;;;10.2;4.4;;;;;;;15.87;43.12402;928.9562;;;;
2023/02/24 08:54:00;;;;;;;10.4;4.3;;;;;;;16.26;42.19141;928.9185;;;;
2023/02/24 08:56:25;;;;;;;9.2;4.3;;;;;;;16.13;41.3584;928.8589;;;;
2023/02/24 08:58:55;;;;;;;19.3;5.6;;;;;;;15.97;42.13965;928.8413;;;;
2023/02/24 09:01:22;;;;;;;10.8;4.3;;;;;;;15.81;42.43652;928.7754;;;;
2023/02/24 09:03:44;;;;;;;11.5;4.3;;;;;;;14.61;45.29395;928.7679;;;;
2023/02/24 09:06:15;;;;;;;9;3.8;;;;;;;14.02;47.05078;928.6909;;;;
2023/02/24 09:08:40;;;;;;;10.8;4.3;;;;;;;13.97;47.73535;928.7294;;;;
2023/02/24 09:11:06;;;;;;;7.4;4.5;;;;;;;14.76;45.75879;928.5711;;;;
2023/02/24 09:13:33;;;;;;;7.8;4.1;;;;;;;14.21;46.64551;928.6312;;;;
2023/02/24 09:15:56;;;;;;;9.6;4;;;;;;;15.52;45.16992;928.4899;;;;
2023/02/24 09:18:29;;;;;;;10.6;4;;;;;;;17.63;41;928.4279;;;;
2023/02/24 09:21:14;;;;;;;8.5;3.6;;;;;;;19.07;37.81543;928.4189;;;;
2023/02/24 09:23:18;;;;;;;6.5;3.9;;;;;;;17.45;38.23438;928.4217;;;;
2023/02/24 09:25:43;;;;;;;10;4.6;;;;;;;17.15;40.34082;928.3792;;;;
2023/02/24 09:28:06;;;;;;;7.5;3.8;;;;;;;15.74;40.7998;928.4305;;;;
2023/02/24 09:30:49;;;;;;;5.3;3.5;;;;;;;16.71;40.20801;928.3592;;;;
2023/02/24 09:32:59;;;;;;;6.8;3.8;;;;;;;17.93;38.7168;928.2427;;;;
2023/02/24 09:35:29;;;;;;;9.7;4.3;;;;;;;19.11;36.0957;928.2172;;;;
2023/02/24 09:37:47;;;;;;;6.8;4.2;;;;;;;19.89;35.62305;928.1275;;;;
2023/02/24 09:40:38;;;;;;;8.2;4;;;;;;;20.5;34.54004;928.0421;;;;
2023/02/24 09:42:47;;;;;;;9.6;4.6;;;;;;;20.87;33.48047;928.0834;;;;
2023/02/24 09:45:10;;;;;;;6.1;4.1;;;;;;;21.39;33.12207;928.0433;;;;
2023/02/24 09:47:55;;;;;;;6.8;4;;;;;;;21.75;32.68066;927.9314;;;;
2023/02/24 09:50:13;;;;;;;11.1;4.9;;;;;;;22.4;31.30957;927.9186;;;;
2023/02/24 09:52:45;;;;;;;7.1;4.5;;;;;;;21.73;31.76563;927.8667;;;;
2023/02/24 09:55:23;;;;;;;8.2;4.5;;;;;;;21.54;31.28418;927.8411;;;;
2023/02/24 09:58:21;;;;;;;8.4;4.6;;;;;;;21.27;31.69824;927.8192;;;;
2023/02/24 10:00:32;;;;;;;7.1;4.4;;;;;;;20.62;33.43848;927.8064;;;;
2023/02/24 10:02:44;;;;;;;8.2;4.5;;;;;;;19.65;33.80859;927.7547;;;;
2023/02/24 10:05:13;;;;;;;8.9;4.3;;;;;;;19.59;34.01367;927.6744;;;;
2023/02/24 10:07:42;;;;;;;6.5;4.2;;;;;;;19.9;32.90625;927.6959;;;;
2023/02/24 10:10:19;;;;;;;7.6;4.1;;;;;;;20.04;32.70605;927.6479;;;;
2023/02/24 10:12:38;;;;;;;9;4;;;;;;;20.34;31.66602;927.587;;;;
2023/02/24 10:15:17;;;;;;;6.7;3.9;;;;;;;20.65;32.25;927.5242;;;;
2023/02/24 10:17:38;;;;;;;5.8;3.5;;;;;;;20.12;33.43555;927.5175;;;;
2023/02/24 10:20:01;;;;;;;5.6;3.6;;;;;;;19.96;32.10547;927.4861;;;;
2023/02/24 10:22:29;;;;;;;6.7;3.4;;;;;;;19.63;34.21484;927.4583;;;;
2023/02/24 10:25:00;;;;;;;6.7;3.6;;;;;;;19.27;34.03613;927.4045;;;;
2023/02/24 10:27:16;;;;;;;7;3.5;;;;;;;19.01;33.95801;927.3436;;;;
2023/02/24 10:29:42;;;;;;;7.9;3.9;;;;;;;18.95;35.11719;927.3403;;;;
2023/02/24 10:32:06;;;;;;;7.9;3.7;;;;;;;19.12;36.03906;927.2614;;;;
2023/02/24 10:34:32;;;;;;;6.8;3.8;;;;;;;19;36.23828;927.2852;;;;
2023/02/24 10:37:06;;;;;;;5.4;3.6;;;;;;;19.32;35.51953;927.36;;;;
2023/02/24 10:39:35;;;;;;;7.8;3.6;;;;;;;19.18;35.35645;927.2701;;;;
2023/02/24 10:42:14;;;;;;;6.3;3.4;;;;;;;19.07;35.39355;927.2037;;;;
2023/02/24 10:44:34;;;;;;;7.8;3.9;;;;;;;18.94;35.51172;927.1658;;;;
2023/02/24 10:47:10;;;;;;;5.3;3.4;;;;;;;18.46;35.72949;927.1564;;;;
2023/02/24 10:49:29;;;;;;;6.2;3.1;;;;;;;18.4;36.29395;927.0698;;;;
2023/02/24 10:51:54;;;;;;;4.4;2.5;;;;;;;17.84;36.9209;927.1225;;;;
2023/02/24 10:54:32;;;;;;;5;3;;;;;;;17.06;37.12109;927.1339;;;;
2023/02/24 10:56:54;;;;;;;4.4;2.9;;;;;;;16.45;38.28516;927.0773;;;;
2023/02/24 10:59:39;;;;;;;4.5;2.4;;;;;;;15.83;39.75684;927.0478;;;;
2023/02/24 11:01:53;;;;;;;6.2;2.6;;;;;;;16.05;40.8418;927.0623;;;;
2023/02/24 11:04:21;;;;;;;6.1;2.6;;;;;;;16.71;40.41699;926.937;;;;
2023/02/24 11:06:51;;;;;;;7.3;2.7;;;;;;;16.8;41.59473;926.8524;;;;
2023/02/24 11:09:17;;;;;;;5.8;2.4;;;;;;;17.19;40.57617;926.8486;;;;
2023/02/24 11:11:24;;;;;;;5.1;2.3;;;;;;;17.52;38.82031;926.799;;;;
2023/02/24 11:18:39;;;;;;;5.1;2.3;;;;;;;16.76;40.88379;926.6566;;;;
2023/02/24 11:21:06;;;;;;;4.6;2.2;;;;;;;16.47;40.94922;926.6036;;;;
2023/02/24 11:23:31;;;;;;;3.5;2.3;;;;;;;16.21;41.07617;926.5349;;;;
2023/02/24 11:25:58;;;;;;;5.6;2.3;;;;;;;15.69;42.63281;926.5466;;;;
2023/02/24 11:28:23;;;;;;;5.2;2.4;;;;;;;15.78;43.11523;926.4083;;;;
2023/02/24 11:30:48;;;;;;;6.5;3.2;;;;;;;15.56;43.52148;926.4703;;;;
2023/02/24 11:33:13;;;;;;;7.9;2.8;;;;;;;15.55;43.89063;926.4272;;;;
2023/02/24 11:35:40;;;;;;;6.2;2.3;;;;;;;15.39;44.63574;926.4236;;;;
2023/02/24 11:38:04;;;;;;;3.9;2.8;;;;;;;15.09;45.53906;926.3619;;;;
2023/02/24 11:40:29;;;;;;;4.9;2.2;;;;;;;14.98;45.44727;926.3412;;;;
2023/02/24 11:42:55;;;;;;;5;2.4;;;;;;;15.19;44.59277;926.2258;;;;
2023/02/24 11:45:21;;;;;;;5.1;2.4;;;;;;;15.05;45.48926;926.245;;;;
2023/02/24 11:47:51;;;;;;;5.7;2.8;;;;;;;14.8;46.86914;926.1869;;;;
2023/02/24 11:50:23;;;;;;;6.5;2.6;;;;;;;15.35;46.74414;926.1367;;;;
2023/02/24 11:52:48;;;;;;;6;2.6;;;;;;;16.06;44.23047;926.1139;;;;
2023/02/24 11:55:16;;;;;;;4.7;2.7;;;;;;;16.58;43.44824;926.0616;;;;
2023/02/24 11:57:49;;;;;;;6.1;2.6;;;;;;;18.88;39.18457;925.973;;;;
2023/02/24 12:00:21;;;;;;;4.3;2.4;;;;;;;20.13;35.64258;925.835;;;;
2023/02/24 12:02:54;;;;;;;6.8;2.8;;;;;;;19.88;36.26367;925.7963;;;;
2023/02/24 12:05:25;;;;;;;6.9;2.6;;;;;;;19.52;36.78223;925.8111;;;;
2023/02/24 12:07:51;;;;;;;7.2;3;;;;;;;19.07;37.35059;925.7794;;;;
2023/02/24 12:10:20;;;;;;;5;2.7;;;;;;;18.15;39.44434;925.7932;;;;
2023/02/24 12:12:46;;;;;;;5.1;2.7;;;;;;;17.04;41.50098;925.7327;;;;
2023/02/24 12:15:12;;;;;;;9.6;3.1;;;;;;;16.62;42.90918;925.7308;;;;
2023/02/24 12:17:40;;;;;;;6.2;2.6;;;;;;;16.26;42.61914;925.7006;;;;
2023/02/24 12:20:12;;;;;;;6;2.8;;;;;;;16.15;43.04785;925.6836;;;;
2023/02/24 12:22:43;;;;;;;6.1;2.9;;;;;;;15.79;45.56641;925.7219;;;;
2023/02/24 12:25:13;;;;;;;6.8;2.9;;;;;;;15.32;45.63281;925.6508;;;;
2023/02/24 12:27:38;;;;;;;8.3;3.5;;;;;;;15.57;45.39355;925.5016;;;;
2023/02/24 12:30:05;;;;;;;6.2;2.6;;;;;;;15.61;45.77734;925.5016;;;;
2023/02/24 12:32:33;;;;;;;6.1;2.6;;;;;;;15.4;45.6416;925.5006;;;;
2023/02/24 12:34:58;;;;;;;6.2;3;;;;;;;15.37;45.88086;925.5215;;;;
2023/02/24 12:37:27;;;;;;;4.9;2.6;;;;;;;15.36;46.15625;925.4299;;;;
2023/02/24 12:39:52;;;;;;;5.1;2.7;;;;;;;15.43;46.45313;925.383;;;;
2023/02/24 12:42:21;;;;;;;6.6;2.7;;;;;;;15.49;46.57422;925.3893;;;;
2023/02/24 12:44:46;;;;;;;5.9;3.1;;;;;;;15.49;46.73633;925.3162;;;;
2023/02/24 12:47:11;;;;;;;5.8;3.1;;;;;;;15.49;46.94434;925.2905;;;;
2023/02/24 12:49:36;;;;;;;4.1;2.8;;;;;;;15.55;46.37305;925.2158;;;;
2023/02/24 12:52:02;;;;;;;4.7;2.6;;;;;;;15.84;46.23047;925.2461;;;;
2023/02/24 12:54:29;;;;;;;5;2.8;;;;;;;15.86;46.04785;925.1911;;;;
2023/02/24 12:56:57;;;;;;;5.8;2.6;;;;;;;16.13;45.15234;925.1694;;;;
2023/02/24 12:59:22;;;;;;;6.1;2.9;;;;;;;16.28;44.48438;925.1848;;;;
2023/02/24 13:01:47;;;;;;;3.9;2.9;;;;;;;16.23;44.38672;925.1577;;;;
2023/02/24 13:04:12;;;;;;;7;2.9;;;;;;;16.3;44.63574;925.0897;;;;
2023/02/24 13:06:40;;;;;;;5.1;2.9;;;;;;;16.19;44.69434;925.1685;;;;
2023/02/24 13:09:06;;;;;;;7.3;2.7;;;;;;;16.19;44.70605;925.1603;;;;
2023/02/24 13:11:35;;;;;;;7.6;3;;;;;;;15.97;45.51563;925.1297;;;;
2023/02/24 13:14:00;;;;;;;5.3;2.8;;;;;;;15.62;46.50684;925.1469;;;;
2023/02/24 13:16:30;;;;;;;4.1;2.7;;;;;;;15.34;47.1123;925.1809;;;;
2023/02/24 13:18:55;;;;;;;6.4;3;;;;;;;15.04;47.56445;925.1476;;;;
2023/02/24 13:21:21;;;;;;;8.1;2.8;;;;;;;14.8;48.8877;925.1124;;;;
2023/02/24 13:23:51;;;;;;;5.3;3.6;;;;;;;14.71;49.16602;925.0105;;;;
2023/02/24 13:26:16;;;;;;;4.8;3.3;;;;;;;14.28;49.87793;924.9941;;;;
2023/02/24 13:28:42;;;;;;;8.3;3.1;;;;;;;14.11;50.66406;924.9518;;;;
2023/02/24 13:31:07;;;;;;;6.5;2.8;;;;;;;14.12;51.21875;924.961;;;;
2023/02/24 13:33:32;;;;;;;11.3;3.1;;;;;;;14.21;50.89355;924.8917;;;;
2023/02/24 13:35:57;;;;;;;8.6;3;;;;;;;14.42;49.19043;924.853;;;;
2023/02/24 13:38:23;;;;;;;5.1;3.2;;;;;;;14.96;48.39844;924.8574;;;;
2023/02/24 13:40:48;;;;;;;7.4;3.8;;;;;;;15.03;48.625;924.8313;;;;
2023/02/24 13:43:17;;;;;;;9.1;3.2;;;;;;;15.5;47.46484;924.7534;;;;
2023/02/24 13:45:49;;;;;;;6.3;3.5;;;;;;;15.46;47.27539;924.7622;;;;
2023/02/24 13:48:15;;;;;;;6.6;3.3;;;;;;;15.35;47.8418;924.7137;;;;
2023/02/24 13:50:40;;;;;;;6.1;3.3;;;;;;;15.75;45.74707;924.6661;;;;
2023/02/24 13:53:06;;;;;;;6.7;3.1;;;;;;;16.15;44.99121;924.582;;;;
2023/02/24 13:55:34;;;;;;;5.6;3;;;;;;;16.34;45.28809;924.5056;;;;
2023/02/24 13:58:00;;;;;;;7.1;3.1;;;;;;;16.35;44.15527;924.5505;;;;
2023/02/24 14:00:25;;;;;;;7;3;;;;;;;16.46;44.66406;924.4522;;;;
2023/02/24 14:02:55;;;;;;;6.3;3;;;;;;;16.27;45.53516;924.4728;;;;
2023/02/24 14:05:20;;;;;;;8.7;3.1;;;;;;;16.14;46.25098;924.4745;;;;
2023/02/24 14:07:45;;;;;;;6.9;3.2;;;;;;;15.99;46.11914;924.4241;;;;
2023/02/24 14:10:17;;;;;;;5.6;2.7;;;;;;;15.5;46.18262;924.4037;;;;
2023/02/24 14:12:45;;;;;;;8.7;3.3;;;;;;;16.3;44.95996;924.3633;;;;
2023/02/24 14:15:18;;;;;;;7.2;3.3;;;;;;;16.33;44.59277;924.3825;;;;
2023/02/24 14:17:46;;;;;;;7.6;3.2;;;;;;;15.79;45.3125;924.383;;;;
2023/02/24 14:20:15;;;;;;;5.8;2.9;;;;;;;15.09;47.16699;924.3606;;;;
2023/02/24 14:22:44;;;;;;;8.2;3;;;;;;;14.8;47.51563;924.2582;;;;
2023/02/24 14:25:10;;;;;;;7.4;3.1;;;;;;;14.69;48.08008;924.2813;;;;
2023/02/24 14:27:35;;;;;;;7.4;3.2;;;;;;;14.37;48.80469;924.2944;;;;
2023/02/24 14:30:00;;;;;;;8.2;3.5;;;;;;;14.13;48.99707;924.2542;;;;
2023/02/24 14:32:27;;;;;;;8.6;3.2;;;;;;;14.02;49.80176;924.3019;;;;
2023/02/24 14:34:52;;;;;;;5.7;3.5;;;;;;;13.99;50.11035;924.2798;;;;
2023/02/24 14:37:20;;;;;;;8.2;3.2;;;;;;;13.91;50.53711;924.2051;;;;
2023/02/24 14:40:20;;;;;;;5.8;3.2;;;;;;;13.94;51.38086;924.2148;;;;
2023/02/24 14:42:45;;;;;;;7.1;4;;;;;;;13.97;51.46582;924.2562;;;;
2023/02/24 14:45:17;;;;;;;9.3;3.4;;;;;;;13.96;51.45215;924.2736;;;;
2023/02/24 14:47:42;;;;;;;7.4;3.4;;;;;;;13.99;51.30664;924.2327;;;;
2023/02/24 14:50:07;;;;;;;7;3.3;;;;;;;13.94;51.88672;924.2277;;;;
2023/02/24 14:52:36;;;;;;;10.7;3.5;;;;;;;14;52.56152;924.1283;;;;
2023/02/24 14:55:01;;;;;;;5.7;3.5;;;;;;;14.03;51.9082;924.1223;;;;
2023/02/24 14:57:27;;;;;;;9.1;3.5;;;;;;;13.89;52.33008;923.9744;;;;
2023/02/24 14:59:52;;;;;;;8.1;3.7;;;;;;;13.87;52.43066;924.0076;;;;
2023/02/24 15:02:18;;;;;;;8;3.6;;;;;;;13.55;53.70313;924.0793;;;;
2023/02/24 15:04:43;;;;;;;12;3.9;;;;;;;13.5;53.62891;924.0117;;;;
2023/02/24 15:07:07;;;;;;;8.4;3.1;;;;;;;13.6;52.99707;923.9925;;;;
2023/02/24 15:09:32;;;;;;;9.2;4;;;;;;;13.62;52.72363;923.9299;;;;
2023/02/24 15:11:57;;;;;;;8.7;3.5;;;;;;;13.63;53.0459;923.9824;;;;
2023/02/24 15:14:22;;;;;;;9.8;3.7;;;;;;;13.65;52.64551;923.9867;;;;
2023/02/24 15:16:48;;;;;;;9.1;3.2;;;;;;;13.67;52.37207;923.9464;;;;
2023/02/24 15:19:13;;;;;;;9.3;3.5;;;;;;;13.68;53.63965;923.8507;;;;
2023/02/24 15:21:38;;;;;;;8.7;3.3;;;;;;;13.67;53.02734;923.8318;;;;
2023/02/24 15:24:07;;;;;;;11.4;3.3;;;;;;;13.64;53.23145;923.7269;;;;
2023/02/24 15:26:32;;;;;;;8.6;3.5;;;;;;;13.48;54.0625;923.7725;;;;
2023/02/24 15:29:01;;;;;;;10.2;3.5;;;;;;;13.31;54.30469;923.8251;;;;
2023/02/24 15:31:27;;;;;;;9.2;3.6;;;;;;;13.19;55.12891;923.7997;;;;
2023/02/24 15:33:54;;;;;;;12.5;4.1;;;;;;;13.24;55.08887;923.842;;;;
2023/02/24 15:36:19;;;;;;;6.2;3.1;;;;;;;13.21;55.74023;923.8113;;;;
2023/02/24 15:38:45;;;;;;;10.4;4;;;;;;;13.24;55.41211;923.8219;;;;
2023/02/24 15:41:11;;;;;;;9.8;3.7;;;;;;;13.07;55.84961;923.7201;;;;
2023/02/24 15:43:38;;;;;;;10.8;3.5;;;;;;;13.13;55.78809;923.7265;;;;
2023/02/24 15:46:07;;;;;;;7.5;3.1;;;;;;;13.14;55.82324;923.6672;;;;
2023/02/24 15:48:32;;;;;;;9;3.3;;;;;;;13.17;55.72266;923.6417;;;;
2023/02/24 15:50:57;;;;;;;9.5;3.5;;;;;;;13.21;55.56836;923.6483;;;;
2023/02/24 15:53:22;;;;;;;7.2;2.8;;;;;;;13.23;55.87012;923.6127;;;;
2023/02/24 15:55:50;;;;;;;5.8;3.4;;;;;;;13.16;56.43359;923.6228;;;;
2023/02/24 15:58:15;;;;;;;8.4;3.7;;;;;;;13.07;56.2627;923.6417;;;;
2023/02/24 16:00:40;;;;;;;13.6;3.7;;;;;;;12.89;56.84766;923.6177;;;;
2023/02/24 16:03:10;;;;;;;9.5;4.3;;;;;;;12.97;56.77832;923.6198;;;;
2023/02/24 16:05:35;;;;;;;10.7;4.2;;;;;;;12.93;57.23145;923.5769;;;;
2023/02/24 16:08:03;;;;;;;9.3;3.5;;;;;;;12.87;57.05176;923.6236;;;;
2023/02/24 16:10:28;;;;;;;10.7;4;;;;;;;12.86;57.2334;923.6655;;;;
2023/02/24 16:12:59;;;;;;;9.3;3.4;;;;;;;12.82;57.58398;923.7328;;;;
2023/02/24 16:15:36;;;;;;;8.7;3.7;;;;;;;12.74;57.41309;923.6984;;;;
2023/02/24 16:18:11;;;;;;;8.2;3.4;;;;;;;12.57;58.02246;923.704;;;;
2023/02/24 16:20:38;;;;;;;9.2;4.1;;;;;;;12.51;58.33496;923.6376;;;;
2023/02/24 16:23:04;;;;;;;9.8;4.2;;;;;;;12.28;59.56543;923.5472;;;;
2023/02/24 16:25:29;;;;;;;11.8;4.2;;;;;;;12.26;59.64258;923.6259;;;;
2023/02/24 16:27:56;;;;;;;13.1;3.8;;;;;;;12.18;59.94043;923.5649;;;;
2023/02/24 16:30:20;;;;;;;12.2;3.7;;;;;;;12.26;59.41309;923.467;;;;
2023/02/24 16:32:45;;;;;;;11.2;4.1;;;;;;;12.31;59.2373;923.6367;;;;
2023/02/24 16:35:20;;;;;;;13.6;5.4;;;;;;;12.29;59.29199;923.6387;;;;
2023/02/24 16:37:50;;;;;;;18.3;6.6;;;;;;;12.24;59.60547;923.4961;;;;
2023/02/24 16:40:19;;;;;;;15.2;7.4;;;;;;;12.24;59.62793;923.4108;;;;
2023/02/24 16:42:43;;;;;;;13.3;5.9;;;;;;;12.11;59.90918;923.493;;;;
2023/02/24 16:45:17;;;;;;;17.2;5.8;;;;;;;12.03;60.20703;923.485;;;;
2023/02/24 16:47:46;;;;;;;11.3;4.5;;;;;;;11.87;60.6543;923.4615;;;;
2023/02/24 16:50:11;;;;;;;11.5;4.4;;;;;;;11.88;60.65527;923.4293;;;;